createdAt,value
2022-11-10T00:03:08.180Z,71.52
2022-11-10T00:06:03.496Z,71.46
2022-11-10T00:08:55.119Z,71.31
2022-11-10T00:11:51.401Z,71.20
2022-11-10T00:14:57.826Z,71.25
2022-11-10T00:17:50.161Z,71.44
2022-11-10T00:20:41.767Z,71.47
2022-11-10T00:23:34.593Z,71.46
2022-11-10T00:26:35.646Z,71.45
2022-11-10T00:29:28.010Z,71.24
2022-11-10T00:32:18.220Z,70.99
2022-11-10T00:35:23.029Z,71.13
2022-11-10T00:38:14.730Z,71.15
2022-11-10T00:41:05.292Z,71.32
2022-11-10T00:44:00.399Z,71.62
2022-11-10T00:46:52.592Z,71.62
2022-11-10T00:49:40.321Z,71.52
2022-11-10T00:52:32.878Z,71.49
2022-11-10T00:55:53.633Z,71.56
2022-11-10T00:59:14.577Z,71.62
2022-11-10T01:02:02.736Z,71.56
2022-11-10T01:04:50.733Z,71.50
2022-11-10T01:07:41.364Z,71.55
2022-11-10T01:10:30.429Z,71.59
2022-11-10T01:13:22.704Z,71.58
2022-11-10T01:16:17.354Z,71.84
2022-11-10T01:19:05.084Z,71.90
2022-11-10T01:21:55.668Z,71.86
2022-11-10T01:24:46.222Z,72.02
2022-11-10T01:27:34.921Z,71.97
2022-11-10T01:30:22.787Z,72.02
2022-11-10T01:33:10.107Z,72.04
2022-11-10T01:36:00.287Z,72.11
2022-11-10T01:38:48.125Z,72.20
2022-11-10T01:41:36.016Z,72.30
2022-11-10T01:44:26.210Z,72.39
2022-11-10T01:47:14.274Z,72.55
2022-11-10T01:50:05.107Z,72.63
2022-11-10T01:53:00.249Z,72.71
2022-11-10T01:55:50.073Z,72.76
2022-11-10T01:58:45.227Z,72.89
2022-11-10T02:01:33.109Z,72.95
2022-11-10T02:04:22.290Z,73.10
2022-11-10T02:07:11.410Z,73.16
2022-11-10T02:10:01.826Z,73.33
2022-11-10T02:12:50.422Z,73.47
2022-11-10T02:15:40.142Z,73.45
2022-11-10T02:18:28.255Z,73.60
2022-11-10T02:21:21.474Z,73.62
2022-11-10T02:24:09.291Z,73.71
2022-11-10T02:26:58.019Z,73.81
2022-11-10T02:29:46.055Z,73.96
2022-11-10T02:32:33.989Z,74.00
2022-11-10T02:35:21.574Z,73.97
2022-11-10T02:38:09.667Z,73.94
2022-11-10T02:40:59.281Z,73.88
2022-11-10T02:43:47.130Z,73.95
2022-11-10T02:46:37.683Z,74.02
2022-11-10T02:49:25.741Z,74.14
2022-11-10T02:52:13.752Z,74.42
2022-11-10T02:55:01.474Z,74.58
2022-11-10T02:57:49.152Z,74.71
2022-11-10T03:00:38.420Z,74.76
2022-11-10T03:03:29.033Z,74.88
2022-11-10T03:06:16.699Z,75.04
2022-11-10T03:09:04.776Z,75.03
2022-11-10T03:11:52.879Z,75.17
2022-11-10T03:14:40.788Z,75.14
2022-11-10T03:17:28.805Z,75.00
2022-11-10T03:20:17.778Z,75.06
2022-11-10T03:23:06.151Z,75.13
2022-11-10T03:25:53.734Z,75.16
2022-11-10T03:28:42.086Z,75.28
2022-11-10T03:31:30.169Z,75.20
2022-11-10T03:34:18.942Z,75.27
2022-11-10T03:37:15.938Z,75.31
2022-11-10T03:40:04.504Z,75.30
2022-11-10T03:42:54.765Z,75.41
2022-11-10T03:45:45.617Z,75.71
2022-11-10T03:48:33.078Z,75.69
2022-11-10T03:51:21.087Z,75.83
2022-11-10T03:54:09.305Z,75.90
2022-11-10T03:57:01.779Z,76.03
2022-11-10T03:59:51.155Z,76.05
2022-11-10T04:02:39.640Z,76.05
2022-11-10T04:05:47.810Z,76.15
2022-11-10T04:08:54.165Z,76.07
2022-11-10T04:12:00.581Z,76.06
2022-11-10T04:15:07.767Z,76.23
2022-11-10T04:18:21.266Z,76.07
2022-11-10T04:21:11.165Z,75.94
2022-11-10T04:24:00.944Z,76.08
2022-11-10T04:26:53.062Z,76.04
2022-11-10T04:29:44.641Z,76.21
2022-11-10T04:32:37.755Z,76.21
2022-11-10T04:35:28.442Z,76.21
2022-11-10T04:38:19.263Z,76.31
2022-11-10T04:41:16.202Z,76.30
2022-11-10T04:44:04.442Z,76.32
2022-11-10T04:46:54.683Z,76.31
2022-11-10T04:49:42.566Z,76.31
2022-11-10T04:52:32.694Z,76.32
2022-11-10T04:55:21.770Z,76.28
2022-11-10T04:58:12.031Z,76.18
2022-11-10T05:00:59.807Z,76.17
2022-11-10T05:03:49.427Z,76.16
2022-11-10T05:06:37.135Z,76.09
2022-11-10T05:09:25.364Z,76.10
2022-11-10T05:12:18.512Z,76.18
2022-11-10T05:15:10.388Z,76.18
2022-11-10T05:17:58.736Z,76.26
2022-11-10T05:20:49.531Z,76.15
2022-11-10T05:23:41.689Z,76.24
2022-11-10T05:26:39.348Z,76.22
2022-11-10T05:29:27.300Z,76.50
2022-11-10T05:32:15.128Z,76.49
2022-11-10T05:35:05.425Z,76.50
2022-11-10T05:37:57.623Z,76.47
2022-11-10T05:40:49.802Z,76.45
2022-11-10T05:43:43.643Z,76.53
2022-11-10T05:46:32.206Z,76.60
2022-11-10T05:49:21.916Z,76.52
2022-11-10T05:52:12.099Z,76.46
2022-11-10T05:55:11.742Z,76.42
2022-11-10T05:58:01.675Z,76.40
2022-11-10T06:00:50.562Z,76.39
2022-11-10T06:03:38.579Z,76.38
2022-11-10T06:06:26.523Z,76.37
2022-11-10T06:09:15.681Z,76.41
2022-11-10T06:12:07.512Z,76.39
2022-11-10T06:15:00.491Z,76.34
2022-11-10T06:17:51.016Z,76.30
2022-11-10T06:20:38.708Z,76.24
2022-11-10T06:23:26.687Z,76.17
2022-11-10T06:26:16.291Z,76.11
2022-11-10T06:29:04.538Z,76.26
2022-11-10T06:31:52.352Z,76.21
2022-11-10T06:34:45.665Z,76.20
2022-11-10T06:37:33.859Z,76.15
2022-11-10T06:40:25.105Z,76.08
2022-11-10T06:43:13.051Z,76.02
2022-11-10T06:46:10.785Z,76.05
2022-11-10T06:49:00.324Z,76.07
2022-11-10T06:51:53.739Z,76.11
2022-11-10T06:54:43.962Z,75.98
2022-11-10T06:57:39.204Z,76.00
2022-11-10T07:00:29.743Z,75.99
2022-11-10T07:03:17.579Z,76.03
2022-11-10T07:06:10.747Z,75.96
2022-11-10T07:08:58.559Z,75.95
2022-11-10T07:11:48.983Z,75.91
2022-11-10T07:14:39.244Z,75.72
2022-11-10T07:17:29.850Z,75.67
2022-11-10T07:20:18.085Z,75.67
2022-11-10T07:23:16.611Z,75.59
2022-11-10T07:26:12.636Z,75.58
2022-11-10T07:29:17.039Z,75.47
2022-11-10T07:32:16.947Z,75.50
2022-11-10T07:35:09.048Z,75.43
2022-11-10T07:38:07.467Z,75.53
2022-11-10T07:41:18.758Z,75.30
2022-11-10T07:44:09.121Z,75.32
2022-11-10T07:47:01.044Z,75.20
2022-11-10T07:50:00.815Z,75.23
2022-11-10T07:53:17.479Z,75.07
2022-11-10T07:56:06.559Z,74.92
2022-11-10T07:58:55.500Z,74.71
2022-11-10T08:01:46.901Z,74.66
2022-11-10T08:04:35.938Z,74.68
2022-11-10T08:07:47.816Z,74.57
2022-11-10T08:10:48.822Z,74.54
2022-11-10T08:13:39.410Z,74.47
2022-11-10T08:16:33.282Z,74.41
2022-11-10T08:19:36.612Z,74.22
2022-11-10T08:22:24.748Z,74.17
2022-11-10T08:26:25.456Z,74.05
2022-11-10T08:29:45.900Z,74.11
2022-11-10T08:32:37.312Z,74.15
2022-11-10T08:35:35.264Z,74.46
2022-11-10T08:38:24.864Z,74.73
2022-11-10T08:41:16.157Z,74.60
2022-11-10T08:44:10.704Z,74.49
2022-11-10T08:47:04.241Z,73.95
2022-11-10T08:49:52.608Z,73.47
2022-11-10T08:52:43.373Z,73.22
2022-11-10T08:55:33.922Z,72.90
2022-11-10T08:58:24.364Z,72.68
2022-11-10T09:01:24.000Z,72.72
2022-11-10T09:04:16.127Z,72.15
2022-11-10T09:07:05.179Z,71.70
2022-11-10T09:10:06.641Z,71.37
2022-11-10T09:13:02.015Z,71.03
2022-11-10T09:16:07.021Z,70.40
2022-11-10T09:19:01.807Z,69.76
2022-11-10T09:22:05.123Z,69.25
2022-11-10T09:24:56.750Z,68.83
2022-11-10T09:27:52.221Z,68.80
2022-11-10T09:31:05.550Z,68.76
2022-11-10T09:34:04.844Z,68.47
2022-11-10T09:36:54.289Z,68.46
2022-11-10T09:39:46.186Z,68.29
2022-11-10T09:42:47.539Z,68.22
2022-11-10T09:45:43.220Z,68.00
2022-11-10T09:48:43.179Z,68.10
2022-11-10T09:51:56.510Z,68.03
2022-11-10T09:55:10.822Z,67.77
2022-11-10T09:58:04.886Z,67.67
2022-11-10T10:01:21.484Z,67.39
2022-11-10T10:04:48.812Z,67.32
2022-11-10T10:07:55.070Z,67.04
2022-11-10T10:10:52.080Z,66.83
2022-11-10T10:14:15.914Z,66.60
2022-11-10T10:17:48.171Z,66.41
2022-11-10T10:21:20.891Z,66.37
2022-11-10T10:24:22.829Z,66.19
2022-11-10T10:27:28.940Z,66.00
2022-11-10T10:30:24.502Z,65.89
2022-11-10T10:33:28.370Z,65.81
2022-11-10T10:36:32.242Z,65.71
2022-11-10T10:39:44.892Z,65.64
2022-11-10T10:42:36.464Z,65.61
2022-11-10T10:45:40.767Z,65.04
2022-11-10T10:48:37.361Z,65.03
2022-11-10T10:51:36.899Z,64.86
2022-11-10T10:54:39.474Z,64.79
2022-11-10T10:57:32.328Z,64.96
2022-11-10T11:00:27.456Z,64.71
2022-11-10T11:03:45.928Z,64.70
2022-11-10T11:06:36.051Z,64.53
2022-11-10T11:09:40.293Z,63.97
2022-11-10T11:12:35.325Z,63.56
2022-11-10T11:15:39.500Z,62.89
2022-11-10T11:18:32.470Z,62.56
2022-11-10T11:21:44.918Z,62.70
2022-11-10T11:25:18.161Z,62.84
2022-11-10T11:28:16.430Z,62.93
2022-11-10T11:31:28.499Z,63.23
2022-11-10T11:34:58.233Z,63.29
2022-11-10T11:38:16.198Z,63.52
2022-11-10T11:41:24.647Z,63.77
2022-11-10T11:44:48.687Z,63.72
2022-11-10T11:52:35.663Z,64.28
2022-11-10T11:55:37.565Z,64.38
2022-11-10T11:58:48.366Z,64.41
2022-11-10T12:02:39.147Z,64.43
2022-11-10T12:05:39.318Z,64.36
2022-11-10T12:08:43.772Z,64.01
2022-11-10T12:12:02.075Z,63.57
2022-11-10T12:15:34.532Z,62.99
2022-11-10T12:18:34.845Z,62.88
2022-11-10T12:22:11.236Z,62.48
2022-11-10T12:25:06.087Z,62.17
2022-11-10T12:28:19.238Z,62.39
2022-11-10T12:31:18.545Z,62.49
2022-11-10T12:34:45.103Z,62.53
2022-11-10T12:37:53.146Z,62.46
2022-11-10T12:40:50.983Z,62.40
2022-11-10T12:44:20.299Z,62.35
2022-11-10T12:47:16.546Z,62.51
2022-11-10T12:50:16.233Z,62.52
2022-11-10T12:53:16.044Z,62.34
2022-11-10T12:56:24.262Z,62.14
2022-11-10T12:59:21.237Z,61.65
2022-11-10T13:02:44.673Z,61.52
2022-11-10T13:05:42.235Z,61.05
2022-11-10T13:08:47.375Z,60.84
2022-11-10T13:11:37.108Z,60.88
2022-11-10T13:14:30.122Z,61.05
2022-11-10T13:17:27.428Z,61.24
2022-11-10T13:20:39.813Z,61.32
2022-11-10T13:23:29.693Z,61.25
2022-11-10T13:26:45.214Z,61.36
2022-11-10T13:29:53.858Z,61.44
2022-11-10T13:32:42.028Z,61.56
2022-11-10T13:35:29.728Z,61.64
2022-11-10T13:42:08.807Z,61.97
2022-11-10T13:45:35.801Z,62.09
2022-11-10T13:49:11.603Z,62.00
2022-11-10T13:52:15.685Z,61.93
2022-11-10T13:55:48.313Z,62.03
2022-11-10T13:58:36.865Z,62.05
2022-11-10T14:01:30.510Z,62.06
2022-11-10T14:04:49.050Z,62.09
2022-11-10T14:07:46.704Z,62.23
2022-11-10T14:10:43.006Z,62.31
2022-11-10T14:14:11.380Z,62.39
2022-11-10T14:16:59.230Z,62.54
2022-11-10T14:19:47.428Z,62.57
2022-11-10T14:22:44.554Z,62.70
2022-11-10T14:25:39.657Z,62.71
2022-11-10T14:28:32.512Z,62.82
2022-11-10T14:31:25.375Z,62.86
2022-11-10T14:34:18.642Z,62.82
2022-11-10T14:37:06.786Z,62.92
2022-11-10T14:40:00.784Z,63.02
2022-11-10T14:42:51.623Z,63.17
2022-11-10T14:45:51.181Z,63.31
2022-11-10T14:48:39.400Z,63.39
2022-11-10T14:51:31.368Z,63.49
2022-11-10T14:54:28.240Z,63.59
2022-11-10T14:57:18.919Z,63.81
2022-11-10T15:00:25.412Z,63.79
2022-11-10T15:03:34.785Z,63.98
2022-11-10T15:06:22.623Z,64.08
2022-11-10T15:09:40.242Z,64.12
2022-11-10T15:12:27.987Z,64.27
2022-11-10T15:15:22.956Z,64.34
2022-11-10T15:18:29.461Z,64.45
2022-11-10T15:21:22.996Z,64.59
2022-11-10T15:24:20.241Z,64.59
2022-11-10T15:27:27.718Z,64.70
2022-11-10T15:30:24.560Z,64.92
2022-11-10T15:33:14.626Z,65.00
2022-11-10T15:36:40.799Z,65.09
2022-11-10T15:39:30.669Z,65.23
2022-11-10T15:42:24.936Z,65.46
2022-11-10T15:45:17.870Z,65.66
2022-11-10T15:48:27.225Z,65.81
2022-11-10T15:51:24.699Z,66.01
2022-11-10T15:54:14.805Z,66.10
2022-11-10T15:57:02.748Z,66.15
2022-11-10T15:59:50.591Z,66.20
2022-11-10T16:02:39.569Z,66.22
2022-11-10T16:05:30.738Z,66.34
2022-11-10T16:08:23.074Z,66.46
2022-11-10T16:11:22.706Z,66.44
2022-11-10T16:14:15.696Z,66.52
2022-11-10T16:17:03.433Z,66.65
2022-11-10T16:19:51.005Z,66.68
2022-11-10T16:22:41.910Z,66.74
2022-11-10T16:25:29.908Z,66.78
2022-11-10T16:28:23.812Z,66.94
2022-11-10T16:31:16.458Z,67.03
2022-11-10T16:34:05.809Z,67.22
2022-11-10T16:36:53.362Z,67.33
2022-11-10T16:39:41.163Z,67.47
2022-11-10T16:42:33.289Z,67.58
2022-11-10T16:45:31.338Z,67.72
2022-11-10T16:48:23.878Z,67.76
2022-11-10T16:51:22.230Z,67.82
2022-11-10T16:54:10.773Z,67.85
2022-11-10T16:57:16.585Z,67.80
2022-11-10T17:00:05.050Z,67.87
2022-11-10T17:03:05.538Z,67.92
2022-11-10T17:05:54.148Z,68.04
2022-11-10T17:08:43.715Z,68.09
2022-11-10T17:11:30.974Z,67.98
2022-11-10T17:14:20.691Z,67.99
2022-11-10T17:17:18.603Z,68.01
2022-11-10T17:20:08.702Z,68.10
2022-11-10T17:22:57.019Z,68.07
2022-11-10T17:25:57.193Z,68.04
2022-11-10T17:28:48.457Z,68.03
2022-11-10T17:31:42.634Z,68.01
2022-11-10T17:34:35.870Z,67.87
2022-11-10T17:37:28.738Z,67.61
2022-11-10T17:40:31.557Z,67.60
2022-11-10T17:43:34.627Z,67.69
2022-11-10T17:46:27.222Z,67.82
2022-11-10T17:49:18.110Z,67.96
2022-11-10T17:52:18.326Z,67.96
2022-11-10T17:55:07.692Z,68.06
2022-11-10T17:58:00.713Z,68.08
2022-11-10T18:00:50.551Z,68.29
2022-11-10T18:03:38.459Z,68.41
2022-11-10T18:06:25.971Z,68.52
2022-11-10T18:09:13.527Z,68.65
2022-11-10T18:12:01.067Z,68.61
2022-11-10T18:14:49.148Z,68.56
2022-11-10T18:17:36.579Z,68.53
2022-11-10T18:20:24.623Z,68.51
2022-11-10T18:23:13.389Z,68.44
2022-11-10T18:26:10.467Z,68.38
2022-11-10T18:29:05.677Z,68.44
2022-11-10T18:31:53.300Z,68.24
2022-11-10T18:34:42.981Z,68.26
2022-11-10T18:37:38.794Z,68.24
2022-11-10T18:40:29.834Z,68.14
2022-11-10T18:43:21.147Z,68.18
2022-11-10T18:46:12.334Z,68.16
2022-11-10T18:49:01.473Z,68.14
2022-11-10T18:51:49.519Z,68.14
2022-11-10T18:54:37.088Z,68.15
2022-11-10T18:57:25.207Z,68.08
2022-11-10T19:00:19.874Z,68.05
2022-11-10T19:03:12.129Z,68.03
2022-11-10T19:06:01.692Z,67.87
2022-11-10T19:08:49.961Z,67.82
2022-11-10T19:11:38.627Z,67.64
2022-11-10T19:14:26.772Z,67.75
2022-11-10T19:17:17.506Z,67.90
2022-11-10T19:20:05.885Z,67.85
2022-11-10T19:22:55.861Z,67.80
2022-11-10T19:25:47.061Z,67.67
2022-11-10T19:28:35.015Z,67.71
2022-11-10T19:31:25.515Z,67.73
2022-11-10T19:34:18.705Z,67.69
2022-11-10T19:37:08.594Z,67.50
2022-11-10T19:39:56.752Z,67.57
2022-11-10T19:42:45.553Z,67.58
2022-11-10T19:45:34.692Z,67.59
2022-11-10T19:48:28.151Z,67.54
2022-11-10T19:51:20.486Z,67.42
2022-11-10T19:54:12.871Z,67.45
2022-11-10T19:57:07.525Z,67.36
2022-11-10T19:59:55.632Z,67.35
2022-11-10T20:02:46.026Z,67.48
2022-11-10T20:05:35.171Z,67.41
2022-11-10T20:08:23.531Z,67.56
2022-11-10T20:11:22.219Z,67.46
2022-11-10T20:14:20.280Z,67.42
2022-11-10T20:17:17.411Z,67.41
2022-11-10T20:20:12.180Z,67.43
2022-11-10T20:23:23.244Z,67.50
2022-11-10T20:26:19.430Z,67.55
2022-11-10T20:29:07.850Z,67.75
2022-11-10T20:31:58.976Z,67.74
2022-11-10T20:34:47.063Z,67.68
2022-11-10T20:37:37.727Z,67.54
2022-11-10T20:40:43.502Z,67.64
2022-11-10T20:43:38.023Z,67.72
2022-11-10T20:46:54.065Z,67.78
2022-11-10T20:49:39.400Z,67.85
2022-11-10T20:52:27.086Z,67.95
2022-11-10T20:55:22.131Z,68.00
2022-11-10T20:58:28.010Z,68.15
2022-11-10T21:01:16.626Z,68.23
2022-11-10T21:04:06.330Z,68.26
2022-11-10T21:06:53.959Z,68.30
2022-11-10T21:09:44.764Z,68.16
2022-11-10T21:12:50.929Z,68.30
2022-11-10T21:15:43.421Z,68.34
2022-11-10T21:18:36.326Z,68.21
2022-11-10T21:21:34.146Z,68.39
2022-11-10T21:24:29.569Z,68.35
2022-11-10T21:27:17.629Z,68.40
2022-11-10T21:30:10.113Z,68.39
2022-11-10T21:33:00.706Z,68.38
2022-11-10T21:35:48.526Z,68.32
2022-11-10T21:38:39.989Z,68.38
2022-11-10T21:41:27.264Z,68.29
2022-11-10T21:44:15.219Z,68.17
2022-11-10T21:47:05.482Z,68.20
2022-11-10T21:49:56.496Z,68.26
2022-11-10T21:52:46.198Z,68.51
2022-11-10T21:55:33.893Z,68.55
2022-11-10T21:58:22.525Z,68.66
2022-11-10T22:01:24.089Z,68.72
2022-11-10T22:04:15.126Z,68.89
2022-11-10T22:07:23.636Z,68.96
2022-11-10T22:10:30.485Z,69.12
2022-11-10T22:13:39.268Z,69.26
2022-11-10T22:16:52.890Z,69.30
2022-11-10T22:19:41.121Z,69.39
2022-11-10T22:22:28.915Z,69.76
2022-11-10T22:25:17.893Z,69.85
2022-11-10T22:28:05.955Z,69.89
2022-11-10T22:30:53.836Z,69.91
2022-11-10T22:33:43.196Z,69.96
2022-11-10T22:36:34.523Z,70.07
2022-11-10T22:39:23.214Z,70.27
2022-11-10T22:42:32.793Z,70.39
2022-11-10T22:45:20.387Z,70.46
2022-11-10T22:48:26.034Z,70.54
2022-11-10T22:51:13.516Z,70.70
2022-11-10T22:54:02.369Z,70.90
2022-11-10T22:56:51.662Z,71.05
2022-11-10T22:59:39.236Z,71.11
2022-11-10T23:02:27.314Z,71.26
2022-11-10T23:05:15.624Z,71.36
2022-11-10T23:08:03.960Z,71.49
2022-11-10T23:11:04.380Z,71.65
2022-11-10T23:13:52.942Z,71.70
2022-11-10T23:16:40.727Z,71.78
2022-11-10T23:19:28.583Z,71.90
2022-11-10T23:22:18.936Z,71.90
2022-11-10T23:25:07.650Z,71.87
2022-11-10T23:27:56.565Z,71.89
2022-11-10T23:30:44.279Z,71.86
2022-11-10T23:33:33.547Z,71.76
2022-11-10T23:36:26.581Z,71.72
2022-11-10T23:39:14.048Z,71.58
2022-11-10T23:42:01.706Z,71.68
2022-11-10T23:44:49.481Z,71.64
2022-11-10T23:47:36.926Z,71.54
2022-11-10T23:50:28.840Z,71.66
2022-11-10T23:53:19.296Z,71.68
2022-11-10T23:56:12.106Z,71.61
2022-11-10T23:59:02.215Z,71.65
